Darstellungsparameter: Aktuell verwendete Einstellungen:
Skalierung der Graphiken ... ?
xyx+y,   Skalierungsfaktor:      Skalierung: Modus: x, Faktor: 1
Darstellungszeitraum ... ?
Vom - - bis: - -   Zeitraum: 23.02.2003 - 31.12.2005
Min/Max/Avg-Anzeige ... ?
Zeige MMA aktuell
Zeige MMA Monat
Zeige MMA alles
Zeige --A aktuell
Zeige --A Monat
Zeige --A alles
Keine MMA-Anzeige
MMA:
Keine MMA-Graphiken
MMA-Basis: 23.02.2003 - 31.12.2005
Quicknavigation für Darstellung... ?
Tage:      1T, 2T, 3T, 5T -1T -2T -3T -5T +1T +2T +3T +5T
Wochen: 1W, 2W, 3W -1W -2W -3W +1W +2W +3W
Monate: 1M, 3M, 6M -1M -3M -6M +1M +3M +6M
Jahre:    1J, 3J, 5J, 10J -1J -3J -5J -10J +1J +3J +5J +10J
Nutze für die Darstellung ... ?
Originaldaten oder ...
Mittelwerte Minima Maxima auf...
Stundenbasis Tagesbasis Wochenbasis
Monatsbasis Jahresbasis      Datenbasis: Mittelwerte auf Tagesbasis
Darstellen als:
Statistik (Auto) Statistik J:M      Darstellung:
Zur Graphik,    zurück zur Übersicht aller Sensoren.
 
Tabellarische Datenbersicht: ?
 
Sensor: Nr:Datum:Temp:Feuchte:Taupunkt:
Aussen-T/F 1 23-02-2003 00:00:00 1.57391 C 66.7826 % -3.92 C
2 24-02-2003 00:00:00 3.08396 C 62.1497 % -3.44 C
3 25-02-2003 00:00:00 1.22845 C 61.2510 % -5.39 C
4 26-02-2003 00:00:00 2.00653 C 60.7864 % -4.75 C
5 27-02-2003 00:00:00 6.02453 C 60.0440 % -1.13 C
6 28-02-2003 00:00:00 7.01339 C 69.3096 % 1.79 C
7 01-03-2003 00:00:00 7.99123 C 80.4363 % 4.84 C
8 02-03-2003 00:00:00 8.58947 C 81.9378 % 5.69 C
9 03-03-2003 00:00:00 5.41134 C 82.2899 % 2.64 C
10 04-03-2003 00:00:00 6.55188 C 70.4728 % 1.58 C
11 05-03-2003 00:00:00 10.06765 C 68.2563 % 4.49 C
12 06-03-2003 00:00:00 8.17302 C 71.7302 % 3.38 C
13 07-03-2003 00:00:00 5.52766 C 73.3688 % 1.15 C
14 08-03-2003 00:00:00 7.57368 C 59.3759 % 0.18 C
15 09-03-2003 00:00:00 9.86698 C 56.9906 % 1.76 C
16 10-03-2003 00:00:00 10.51917 C 61.8917 % 3.53 C
17 11-03-2003 00:00:00 12.31167 C 63.8833 % 5.68 C
18 12-03-2003 00:00:00 9.19725 C 66.3761 % 3.27 C
19 13-03-2003 00:00:00 7.42917 C 54.1167 % -1.23 C
20 14-03-2003 00:00:00 4.74417 C 52.0833 % -4.24 C
21 15-03-2003 00:00:00 5.11261 C 55.3866 % -3.07 C
22 16-03-2003 00:00:00 5.46583 C 57.2583 % -2.3 C
23 17-03-2003 00:00:00 6.59389 C 56.3778 % -1.45 C
24 18-03-2003 00:00:00 4.7979 C 65.0629 % -1.2 C
25 19-03-2003 00:00:00 6.72437 C 60.6387 % -0.33 C
Sensor: Nr:Datum:Temp:Feuchte:Taupunkt:
Aussen-T/F 26 20-03-2003 00:00:00 5.83083 C 65.2583 % -0.17 C
27 21-03-2003 00:00:00 5.31271 C 58.9407 % -2.05 C
28 22-03-2003 00:00:00 6.51 C 41.2000 % -5.71 C
29 23-03-2003 00:00:00 7.7916 C 37.5462 % -5.77 C
30 24-03-2003 00:00:00 9.90917 C 44.5250 % -1.6 C
31 25-03-2003 00:00:00 12.45126 C 58.1681 % 4.47 C
32 26-03-2003 00:00:00 12.51833 C 69.5417 % 7.11 C
33 27-03-2003 00:00:00 12.4042 C 66.2017 % 6.28 C
34 28-03-2003 00:00:00 13.62333 C 58.6083 % 5.67 C
35 29-03-2003 00:00:00 15.55652 C 61.8522 % 8.28 C
36 30-03-2003 00:00:00 13.94188 C 67.0342 % 7.93 C
37 31-03-2003 00:00:00 10.48833 C 53.6750 % 1.5 C
38 01-04-2003 00:00:00 9.86224 C 56.5105 % 1.64 C
39 02-04-2003 00:00:00 5.81958 C 81.8708 % 2.97 C
40 03-04-2003 00:00:00 5.28292 C 68.8667 % 0.04 C
41 04-04-2003 00:00:00 6.50335 C 58.7847 % -0.97 C
42 05-04-2003 00:00:00 8.93776 C 58.2378 % 1.19 C
43 06-04-2003 00:00:00 8.6063 C 41.3386 % -3.77 C
44 25-04-2003 00:00:00 26.39362 C 26.6809 % 5.73 C
45 26-04-2003 00:00:00 15.08169 C 74.5423 % 10.6 C
46 27-04-2003 00:00:00 12.72168 C 73.9441 % 8.2 C
47 28-04-2003 00:00:00 17.06276 C 60.1241 % 9.28 C
48 29-04-2003 00:00:00 17.9 C 57.5816 % 9.42 C
49 30-04-2003 00:00:00 14.06319 C 82.6389 % 11.16 C
50 01-05-2003 00:00:00 13.28944 C 63.6901 % 6.56 C
Sensor: Nr:Datum:Temp:Feuchte:Taupunkt:
Aussen-T/F 51 02-05-2003 00:00:00 14.91042 C 59.3125 % 7.05 C
52 03-05-2003 00:00:00 14.75944 C 47.3357 % 3.67 C
53 04-05-2003 00:00:00 17.16901 C 49.5704 % 6.54 C
54 05-05-2003 00:00:00 19.43681 C 53.5069 % 9.76 C
55 06-05-2003 00:00:00 15.45874 C 71.7692 % 10.39 C
56 07-05-2003 00:00:00 17.27569 C 60.5208 % 9.57 C
57 08-05-2003 00:00:00 18.80278 C 60.7847 % 11.08 C
58 09-05-2003 00:00:00 15.69375 C 76.2431 % 11.53 C
59 10-05-2003 00:00:00 16.18112 C 59.7203 % 8.35 C
60 11-05-2003 00:00:00 15.48322 C 52.6923 % 5.87 C
61 12-05-2003 00:00:00 16.44028 C 54.5694 % 7.27 C
62 13-05-2003 00:00:00 11.88042 C 65.1399 % 5.55 C
63 14-05-2003 00:00:00 9.76224 C 67.7972 % 4.11 C
64 15-05-2003 00:00:00 12.75944 C 55.0490 % 3.97 C
65 16-05-2003 00:00:00 13.02917 C 54.5694 % 4.1 C
66 17-05-2003 00:00:00 14.35594 C 61.5944 % 7.08 C
67 18-05-2003 00:00:00 16.15714 C 69.7823 % 10.64 C
68 19-05-2003 00:00:00 13.69172 C 88.0552 % 11.75 C
69 20-05-2003 00:00:00 12.97431 C 63.2847 % 6.17 C
70 21-05-2003 00:00:00 11.90559 C 75.7203 % 7.76 C
71 22-05-2003 00:00:00 13.89792 C 84.2569 % 11.29 C
72 23-05-2003 00:00:00 18.97762 C 56.1748 % 10.06 C
73 24-05-2003 00:00:00 19.54577 C 59.3099 % 11.4 C
74 25-05-2003 00:00:00 16.0137 C 65.2740 % 9.51 C
75 26-05-2003 00:00:00 17.77413 C 55.2308 % 8.68 C
Sensor: Nr:Datum:Temp:Feuchte:Taupunkt:
Aussen-T/F 76 27-05-2003 00:00:00 19.34444 C 57.4375 % 10.73 C
77 28-05-2003 00:00:00 20.5951 C 55.7133 % 11.44 C
78 29-05-2003 00:00:00 22.73056 C 49.4931 % 11.62 C
79 30-05-2003 00:00:00 23.71367 C 54.0863 % 13.88 C
80 31-05-2003 00:00:00 21.47902 C 71.0420 % 16.01 C
81 01-06-2003 00:00:00 23.35175 C 63.1538 % 15.95 C
82 02-06-2003 00:00:00 23.57394 C 58.9085 % 15.07 C
83 03-06-2003 00:00:00 23.12153 C 66.6111 % 16.57 C
84 04-06-2003 00:00:00 25.04755 C 60.1049 % 16.77 C
85 05-06-2003 00:00:00 22.86621 C 62.8828 % 15.42 C
86 06-06-2003 00:00:00 22.71608 C 60.7692 % 14.75 C
87 07-06-2003 00:00:00 24.90694 C 57.7083 % 16 C
88 08-06-2003 00:00:00 22.7993 C 68.7902 % 16.77 C
89 09-06-2003 00:00:00 19.85139 C 49.4514 % 8.97 C
90 10-06-2003 00:00:00 21.51389 C 65.1806 % 14.7 C
91 11-06-2003 00:00:00 23.96899 C 60.2089 % 15.78 C
92 12-06-2003 00:00:00 22.99412 C 66.6891 % 16.46 C
93 13-06-2003 00:00:00 22.87647 C 57.4328 % 14.03 C
94 14-06-2003 00:00:00 19.34812 C 68.9833 % 13.52 C
95 15-06-2003 00:00:00 22.11274 C 57.9151 % 13.44 C
96 16-06-2003 00:00:00 22.74242 C 45.5000 % 10.37 C
97 17-06-2003 00:00:00 22.74154 C 52.5385 % 12.54 C
98 18-06-2003 00:00:00 20.45909 C 68.3485 % 14.43 C
99 19-06-2003 00:00:00 20.73846 C 61.8769 % 13.17 C
100 20-06-2003 00:00:00 20.76769 C 49.6000 % 9.85 C
Sensor: Nr:Datum:Temp:Feuchte:Taupunkt:
Aussen-T/F 101 21-06-2003 00:00:00 18.57692 C 47.8615 % 7.32 C
102 22-06-2003 00:00:00 22.50152 C 47.7576 % 10.87 C
103 23-06-2003 00:00:00 23.88438 C 51.8750 % 13.4 C
104 24-06-2003 00:00:00 22.05758 C 51.4545 % 11.59 C
105 25-06-2003 00:00:00 21.8 C 47.4154 % 10.13 C
106 26-06-2003 00:00:00 23.58 C 44.0308 % 10.63 C
107 27-06-2003 00:00:00 22.64923 C 49.3846 % 11.51 C
108 28-06-2003 00:00:00 22.94308 C 58.8154 % 14.46 C
109 29-06-2003 00:00:00 25.77699 C 43.2478 % 12.34 C
110 30-06-2003 00:00:00 22.11883 C 62.6527 % 14.66 C
111 01-07-2003 00:00:00 19.41218 C 64.0672 % 12.45 C
112 02-07-2003 00:00:00 17.99791 C 63.5774 % 10.99 C
113 03-07-2003 00:00:00 17.02667 C 71.4083 % 11.82 C
114 04-07-2003 00:00:00 17.05607 C 70.8243 % 11.72 C
115 05-07-2003 00:00:00 16.84059 C 74.2510 % 12.23 C
116 06-07-2003 00:00:00 20.31743 C 54.4450 % 10.83 C
117 07-07-2003 00:00:00 21.54861 C 51.0486 % 11 C
118 08-07-2003 00:00:00 21.54825 C 50.4476 % 10.82 C
119 09-07-2003 00:00:00 20.83077 C 57.8392 % 12.23 C
120 10-07-2003 00:00:00 21.87972 C 52.3916 % 11.7 C
121 11-07-2003 00:00:00 22.96875 C 51.7083 % 12.5 C
122 12-07-2003 00:00:00 21.7951 C 44.3427 % 9.13 C
123 13-07-2003 00:00:00 22.62708 C 44.8472 % 10.05 C
124 14-07-2003 00:00:00 24.49648 C 36.6479 % 8.72 C
125 15-07-2003 00:00:00 25.82168 C 36.1189 % 9.67 C
Sensor: Nr:Datum:Temp:Feuchte:Taupunkt:
Aussen-T/F 126 16-07-2003 00:00:00 26.9125 C 37.1736 % 11.07 C
127 17-07-2003 00:00:00 21.73147 C 52.1538 % 11.49 C
128 18-07-2003 00:00:00 23.17361 C 44.5347 % 10.44 C
129 19-07-2003 00:00:00 25.16783 C 40.8252 % 10.93 C
130 20-07-2003 00:00:00 25.17292 C 45.1389 % 12.45 C
131 21-07-2003 00:00:00 24.85804 C 58.8462 % 16.26 C
132 22-07-2003 00:00:00 23.93147 C 61.8741 % 16.17 C
133 23-07-2003 00:00:00 23.35208 C 52.8889 % 13.2 C
134 24-07-2003 00:00:00 21.31549 C 63.0352 % 14 C
135 25-07-2003 00:00:00 21.11064 C 63.1560 % 13.83 C
136 26-07-2003 00:00:00 21.33333 C 66.7847 % 14.91 C
137 27-07-2003 00:00:00 20.99861 C 77.9028 % 17 C
138 28-07-2003 00:00:00 20.96667 C 53.4792 % 11.17 C
139 29-07-2003 00:00:00 21.55556 C 46.8264 % 9.72 C
140 30-07-2003 00:00:00 19.87292 C 65.4514 % 13.21 C
141 31-07-2003 00:00:00 22.51319 C 66.7986 % 16.03 C
142 01-08-2003 00:00:00 24.69658 C 52.2123 % 14.25 C
143 02-08-2003 00:00:00 26.31181 C 47.9931 % 14.42 C
144 03-08-2003 00:00:00 26.94236 C 49.3611 % 15.44 C
145 04-08-2003 00:00:00 27.77133 C 46.9371 % 15.41 C
146 05-08-2003 00:00:00 27.84375 C 42.7917 % 14.04 C
147 06-08-2003 00:00:00 27.87292 C 43.5556 % 14.34 C
148 07-08-2003 00:00:00 28.54167 C 38.8472 % 13.18 C
149 08-08-2003 00:00:00 28.9625 C 39.1319 % 13.66 C
150 09-08-2003 00:00:00 28.56528 C 44.3542 % 15.25 C
Sensor: Nr:Datum:Temp:Feuchte:Taupunkt:
Aussen-T/F 151 10-08-2003 00:00:00 27.40347 C 38.8056 % 12.15 C
152 11-08-2003 00:00:00 26.68333 C 38.7500 % 11.49 C
153 12-08-2003 00:00:00 28.33655 C 37.8276 % 12.59 C
154 13-08-2003 00:00:00 27.60694 C 40.9583 % 13.16 C
155 14-08-2003 00:00:00 24.19301 C 47.1049 % 12.21 C
156 15-08-2003 00:00:00 21.19583 C 43.4375 % 8.28 C
157 16-08-2003 00:00:00 20.93819 C 43.9861 % 8.23 C
158 17-08-2003 00:00:00 21.95417 C 45.0139 % 9.49 C
159 18-08-2003 00:00:00 19.58194 C 82.9028 % 16.6 C
160 19-08-2003 00:00:00 21.01528 C 69.0625 % 15.13 C
161 20-08-2003 00:00:00 20.52164 C 55.3731 % 11.28 C
162 21-08-2003 00:00:00 20.59583 C 53.3000 % 10.77 C
163 22-08-2003 00:00:00 20.25 C 54.7667 % 10.86 C
164 23-08-2003 00:00:00 21.61417 C 58.0667 % 13.02 C
165 24-08-2003 00:00:00 20.755 C 54.0333 % 11.13 C
166 25-08-2003 00:00:00 20.085 C 51.4833 % 9.78 C
167 26-08-2003 00:00:00 20.6475 C 50.7167 % 10.08 C
168 27-08-2003 00:00:00 18.16083 C 58.7250 % 9.96 C
169 28-08-2003 00:00:00 18.705 C 63.4250 % 11.62 C
170 29-08-2003 00:00:00 17.34333 C 84.3083 % 14.67 C
171 30-08-2003 00:00:00 14.92583 C 81.8833 % 11.86 C
172 31-08-2003 00:00:00 14.155 C 71.3917 % 9.06 C
173 01-09-2003 00:00:00 13.11417 C 71.3000 % 8.04 C
174 02-09-2003 00:00:00 14.14167 C 66.8583 % 8.08 C
175 03-09-2003 00:00:00 14.39 C 59.7500 % 6.67 C
Sensor: Nr:Datum:Temp:Feuchte:Taupunkt:
Aussen-T/F 176 04-09-2003 00:00:00 16.6175 C 58.2750 % 8.4 C
177 05-09-2003 00:00:00 17.74833 C 55.5667 % 8.75 C
178 06-09-2003 00:00:00 19.795 C 62.3167 % 12.39 C
179 07-09-2003 00:00:00 18.97417 C 67.1000 % 12.74 C
180 08-09-2003 00:00:00 16.28824 C 75.0336 % 11.86 C
181 09-09-2003 00:00:00 15.21417 C 70.1833 % 9.82 C
182 10-09-2003 00:00:00 14.80667 C 77.9583 % 11 C
183 11-09-2003 00:00:00 14.8625 C 66.0667 % 8.59 C
184 12-09-2003 00:00:00 16.89667 C 62.4667 % 9.69 C
185 13-09-2003 00:00:00 17.87 C 57.7833 % 9.44 C
186 14-09-2003 00:00:00 15.66083 C 63.5500 % 8.77 C
187 15-09-2003 00:00:00 16.91818 C 65.4793 % 10.41 C
188 16-09-2003 00:00:00 16.72397 C 67.3058 % 10.64 C
189 17-09-2003 00:00:00 17.685 C 65.4000 % 11.12 C
190 18-09-2003 00:00:00 18.04583 C 58.8333 % 9.88 C
191 19-09-2003 00:00:00 19.47083 C 57.8417 % 10.96 C
192 20-09-2003 00:00:00 20.25882 C 60.2185 % 12.3 C
193 21-09-2003 00:00:00 20.695 C 53.1500 % 10.82 C
194 22-09-2003 00:00:00 18.3225 C 69.5000 % 12.65 C
195 23-09-2003 00:00:00 13.95333 C 70.6750 % 8.72 C
196 24-09-2003 00:00:00 10.7375 C 70.4583 % 5.59 C
197 25-09-2003 00:00:00 11.6925 C 64.3750 % 5.2 C
198 26-09-2003 00:00:00 12.8025 C 63.1500 % 5.98 C
199 27-09-2003 00:00:00 13.93417 C 67.8500 % 8.1 C
200 28-09-2003 00:00:00 14.33554 C 77.3967 % 10.44 C
Sensor: Nr:Datum:Temp:Feuchte:Taupunkt:
Aussen-T/F 201 29-09-2003 00:00:00 13.1625 C 65.3583 % 6.82 C
202 30-09-2003 00:00:00 12.02083 C 69.6500 % 6.65 C
203 01-10-2003 00:00:00 10.64793 C 81.5289 % 7.62 C
204 02-10-2003 00:00:00 16.3025 C 80.8000 % 13 C
205 03-10-2003 00:00:00 16.015 C 77.1583 % 12.02 C
206 04-10-2003 00:00:00 12.51583 C 79.8000 % 9.13 C
207 05-10-2003 00:00:00 9.27917 C 74.4000 % 4.97 C
208 06-10-2003 00:00:00 7.6025 C 76.5333 % 3.75 C
209 07-10-2003 00:00:00 8.125 C 79.9833 % 4.89 C
210 08-10-2003 00:00:00 9.46694 C 76.2479 % 5.5 C
211 09-10-2003 00:00:00 12.52833 C 76.0750 % 8.43 C
212 10-10-2003 00:00:00 13.88667 C 73.4417 % 9.22 C
213 11-10-2003 00:00:00 13.46833 C 76.5250 % 9.43 C
214 12-10-2003 00:00:00 10.71157 C 70.5620 % 5.59 C
215 13-10-2003 00:00:00 8.84417 C 70.8333 % 3.85 C
216 14-10-2003 00:00:00 8.61774 C 64.7984 % 2.38 C
217 15-10-2003 00:00:00 6.7392 C 67.5920 % 1.18 C
218 16-10-2003 00:00:00 7.11532 C 68.5726 % 1.74 C
219 17-10-2003 00:00:00 6.33417 C 65.2583 % 0.3 C
220 18-10-2003 00:00:00 4.57667 C 72.5000 % 0.07 C
221 19-10-2003 00:00:00 4.02333 C 78.4000 % 0.61 C
222 20-10-2003 00:00:00 6.06833 C 73.9417 % 1.78 C
223 21-10-2003 00:00:00 5.19853 C 78.9044 % 1.85 C
224 22-10-2003 00:00:00 3.7873 C 87.5000 % 1.91 C
225 23-10-2003 00:00:00 3.55476 C 64.1190 % -2.58 C
Sensor: Nr:Datum:Temp:Feuchte:Taupunkt:
Aussen-T/F 226 24-10-2003 00:00:00 0.92869 C 65.7787 % -4.73 C
227 25-10-2003 00:00:00 4.80331 C 66.9917 % -0.79 C
228 26-10-2003 00:00:00 6.392 C 69.9840 % 1.33 C
229 27-10-2003 00:00:00 6.27667 C 74.4000 % 2.07 C
230 28-10-2003 00:00:00 4.52667 C 74.7833 % 0.45 C
231 29-10-2003 00:00:00 5.675 C 85.5726 % 3.45 C
232 30-10-2003 00:00:00 5.9688 C 83.1200 % 3.33 C
233 31-10-2003 00:00:00 7.1 C 87.1774 % 5.12 C
234 01-11-2003 00:00:00 9.5144 C 76.7600 % 5.64 C
235 02-11-2003 00:00:00 9.956 C 67.9440 % 4.32 C
236 03-11-2003 00:00:00 12.28333 C 66.8833 % 6.32 C
237 04-11-2003 00:00:00 9.815 C 73.6417 % 5.34 C
238 05-11-2003 00:00:00 6.345 C 80.5333 % 3.25 C
239 06-11-2003 00:00:00 4.63388 C 80.1322 % 1.51 C
240 07-11-2003 00:00:00 5.57323 C 70.3701 % 0.62 C
241 08-11-2003 00:00:00 6.66748 C 66.3740 % 0.86 C
242 09-11-2003 00:00:00 5.94409 C 72.6378 % 1.41 C
243 10-11-2003 00:00:00 6.52937 C 76.1190 % 2.63 C
244 11-11-2003 00:00:00 5.2064 C 69.3200 % 0.06 C
245 12-11-2003 00:00:00 5.06859 C 71.5455 % 0.36 C
246 13-11-2003 00:00:00 7.195 C 76.3250 % 3.32 C
247 14-11-2003 00:00:00 5.67167 C 79.2833 % 2.37 C
248 15-11-2003 00:00:00 6.93719 C 77.5372 % 3.29 C
249 16-11-2003 00:00:00 4.36532 C 87.4355 % 2.47 C
250 17-11-2003 00:00:00 6.63361 C 75.4918 % 2.62 C
Sensor: Nr:Datum:Temp:Feuchte:Taupunkt:
Aussen-T/F 251 18-11-2003 00:00:00 8.51967 C 81.8852 % 5.61 C
252 19-11-2003 00:00:00 11.89837 C 74.1951 % 7.46 C
253 20-11-2003 00:00:00 10.56167 C 72.6167 % 5.86 C
254 21-11-2003 00:00:00 9.79083 C 71.8667 % 4.97 C
255 22-11-2003 00:00:00 9.85167 C 75.1167 % 5.66 C
256 23-11-2003 00:00:00 13.305 C 59.1083 % 5.5 C
257 24-11-2003 00:00:00 13.64667 C 61.8500 % 6.47 C
258 25-11-2003 00:00:00 11.82683 C 69.7236 % 6.48 C
259 26-11-2003 00:00:00 9.87317 C 68.3008 % 4.32 C
260 27-11-2003 00:00:00 7.63871 C 86.8548 % 5.59 C
261 28-11-2003 00:00:00 5.24797 C 85.3577 % 3 C
262 29-11-2003 00:00:00 3.545 C 80.2833 % 0.48 C
263 30-11-2003 00:00:00 5.35833 C 82.9833 % 2.71 C
264 01-12-2003 00:00:00 7.79167 C 77.0500 % 4.03 C
265 02-12-2003 00:00:00 5.15833 C 80.9417 % 2.16 C
266 03-12-2003 00:00:00 3.17273 C 88.3719 % 1.44 C
267 04-12-2003 00:00:00 4.92258 C 80.2823 % 1.82 C
268 05-12-2003 00:00:00 5.37787 C 72.3279 % 0.81 C
269 06-12-2003 00:00:00 3.05124 C 71.3223 % -1.62 C
270 07-12-2003 00:00:00 -2.40492 C 71.0820 % -6.92 C
271 08-12-2003 00:00:00 -4.28 C 78.6917 % -7.42 C
272 09-12-2003 00:00:00 -4.81083 C 76.5667 % -8.29 C
273 10-12-2003 00:00:00 -3.95583 C 77.6917 % -7.27 C
274 11-12-2003 00:00:00 1.15083 C 74.2833 % -2.9 C
275 12-12-2003 00:00:00 4.94758 C 79.1855 % 1.65 C
Sensor: Nr:Datum:Temp:Feuchte:Taupunkt:
Aussen-T/F 276 13-12-2003 00:00:00 10.35 C 78.4262 % 6.77 C
277 14-12-2003 00:00:00 7.74758 C 65.7500 % 1.75 C
278 15-12-2003 00:00:00 3.0314 C 68.9421 % -2.1 C
279 16-12-2003 00:00:00 3.83333 C 70.9917 % -0.93 C
280 17-12-2003 00:00:00 3.71417 C 75.4750 % -0.21 C
281 18-12-2003 00:00:00 -0.60917 C 84.4750 % -2.9 C
282 19-12-2003 00:00:00 2.1325 C 80.4417 % -0.87 C
283 20-12-2003 00:00:00 8.76446 C 73.6198 % 4.32 C
284 21-12-2003 00:00:00 6.09262 C 71.7705 % 1.39 C
285 22-12-2003 00:00:00 1.6822 C 71.7458 % -2.86 C
286 23-12-2003 00:00:00 -0.1781 C 74.3905 % -4.17 C
287 24-12-2003 00:00:00 1.48333 C 69.6349 % -3.45 C
288 25-12-2003 00:00:00 3.60256 C 69.7265 % -1.4 C
289 26-12-2003 00:00:00 5.71008 C 71.8739 % 1.04 C
290 27-12-2003 00:00:00 7.0438 C 69.6364 % 1.88 C
291 28-12-2003 00:00:00 7.02333 C 71.9333 % 2.32 C
292 29-12-2003 00:00:00 1.82917 C 68.9167 % -3.25 C
293 30-12-2003 00:00:00 -1.70333 C 83.5833 % -4.11 C
294 31-12-2003 00:00:00 -1.04017 C 78.5214 % -4.29 C
295 01-01-2004 00:00:00 -2.37115 C 75.9519 % -6.02 C
296 02-01-2004 00:00:00 -2.12212 C 48.7965 % -11.44 C
297 03-01-2004 00:00:00 -5.68621 C 71.0603 % -10.08 C
298 04-01-2004 00:00:00 -2.61969 C 72.4646 % -6.88 C
299 05-01-2004 00:00:00 1.15917 C 83.2833 % -1.35 C
300 06-01-2004 00:00:00 2.9925 C 86.9833 % 1.04 C
Sensor: Nr:Datum:Temp:Feuchte:Taupunkt:
Aussen-T/F 301 07-01-2004 00:00:00 5.665 C 80.7250 % 2.62 C
302 08-01-2004 00:00:00 4.4437 C 78.9496 % 1.12 C
303 09-01-2004 00:00:00 5.33898 C 80.6102 % 2.28 C
304 10-01-2004 00:00:00 4.62667 C 74.7417 % 0.54 C
305 11-01-2004 00:00:00 9.1975 C 74.0917 % 4.83 C
306 12-01-2004 00:00:00 5.775 C 72.9417 % 1.31 C
307 13-01-2004 00:00:00 7.80083 C 69.7083 % 2.62 C
308 14-01-2004 00:00:00 5.86667 C 63.7083 % -0.47 C
309 15-01-2004 00:00:00 4.12083 C 70.3750 % -0.77 C
310 16-01-2004 00:00:00 5.9575 C 65.0417 % -0.1 C
311 17-01-2004 00:00:00 4.54333 C 68.7833 % -0.68 C
312 18-01-2004 00:00:00 2.49583 C 68.9417 % -2.61 C
313 19-01-2004 00:00:00 0.56471 C 77.5966 % -2.89 C
314 20-01-2004 00:00:00 4.19833 C 74.5917 % 0.1 C
315 21-01-2004 00:00:00 0.6125 C 62.2417 % -5.76 C
316 22-01-2004 00:00:00 -0.92333 C 68.3750 % -6 C
317 23-01-2004 00:00:00 -0.45583 C 63.8417 % -6.45 C
318 24-01-2004 00:00:00 -0.8575 C 68.2083 % -5.97 C
319 25-01-2004 00:00:00 2.03167 C 81.7583 % -0.75 C
320 26-01-2004 00:00:00 1.7325 C 71.4417 % -2.87 C
321 27-01-2004 00:00:00 0.47583 C 64.6333 % -5.4 C
322 28-01-2004 00:00:00 0.665 C 66.7750 % -4.79 C
323 29-01-2004 00:00:00 0.295 C 70.8750 % -4.35 C
324 30-01-2004 00:00:00 0.67083 C 59.1083 % -6.38 C
325 31-01-2004 00:00:00 6.21597 C 59.3697 % -1.1 C
Sensor: Nr:Datum:Temp:Feuchte:Taupunkt:
Aussen-T/F 326 01-02-2004 00:00:00 11.11083 C 58.0417 % 3.18 C
327 02-02-2004 00:00:00 11.24083 C 66.9750 % 5.34 C
328 03-02-2004 00:00:00 11.46 C 62.1333 % 4.48 C
329 04-02-2004 00:00:00 12.275 C 51.2833 % 2.52 C
330 05-02-2004 00:00:00 12.8325 C 51.3917 % 3.07 C
331 06-02-2004 00:00:00 13.52417 C 50.5000 % 3.46 C
332 07-02-2004 00:00:00 9.05417 C 49.8833 % -0.83 C
333 08-02-2004 00:00:00 4.03583 C 67.1250 % -1.5 C
334 09-02-2004 00:00:00 3.1225 C 61.5000 % -3.54 C
335 10-02-2004 00:00:00 2.2525 C 64.8167 % -3.67 C
336 11-02-2004 00:00:00 5.42417 C 80.4500 % 2.34 C
337 12-02-2004 00:00:00 3.90932 C 63.4746 % -2.38 C
338 13-02-2004 00:00:00 5.5876 C 75.4545 % 1.6 C
339 14-02-2004 00:00:00 6.88083 C 73.6917 % 2.52 C
340 15-02-2004 00:00:00 6.2625 C 73.0750 % 1.8 C
341 16-02-2004 00:00:00 5.3425 C 69.5583 % 0.24 C
342 17-02-2004 00:00:00 3.33417 C 68.6667 % -1.86 C
343 18-02-2004 00:00:00 4.05167 C 64.0500 % -2.12 C
344 19-02-2004 00:00:00 1.21833 C 58.5000 % -6 C
345 20-02-2004 00:00:00 2.01417 C 48.5417 % -7.68 C
346 21-02-2004 00:00:00 1.18 C 55.1917 % -6.79 C
347 22-02-2004 00:00:00 1.965 C 59.5333 % -5.07 C
348 23-02-2004 00:00:00 0.45868 C 60.0000 % -6.38 C
349 24-02-2004 00:00:00 -0.95167 C 61.6917 % -7.37 C
350 25-02-2004 00:00:00 1.34583 C 73.6000 % -2.84 C
Sensor: Nr:Datum:Temp:Feuchte:Taupunkt:
Aussen-T/F 351 26-02-2004 00:00:00 -0.21417 C 64.6083 % -6.07 C
352 27-02-2004 00:00:00 -1.6575 C 59.8250 % -8.43 C
353 28-02-2004 00:00:00 0.15508 C 53.9237 % -8.05 C
354 29-02-2004 00:00:00 -1.085 C 58.9083 % -8.09 C
355 01-03-2004 00:00:00 -0.13417 C 54.4167 % -8.21 C
356 02-03-2004 00:00:00 3.0575 C 62.9667 % -3.29 C
357 03-03-2004 00:00:00 3.86667 C 52.7667 % -4.88 C
358 04-03-2004 00:00:00 3.09 C 56.6000 % -4.68 C
359 05-03-2004 00:00:00 3.3075 C 46.8833 % -6.94 C
360 06-03-2004 00:00:00 1.425 C 79.3167 % -1.75 C
361 07-03-2004 00:00:00 3.68583 C 73.7083 % -0.56 C
362 08-03-2004 00:00:00 4.06167 C 57.2833 % -3.61 C
363 09-03-2004 00:00:00 1.66333 C 62.8583 % -4.64 C
364 10-03-2004 00:00:00 0.88 C 75.4667 % -2.95 C
365 11-03-2004 00:00:00 1.12857 C 77.3866 % -2.38 C
366 12-03-2004 00:00:00 3.4975 C 64.3917 % -2.57 C
367 13-03-2004 00:00:00 9.25417 C 58.9083 % 1.65 C
368 14-03-2004 00:00:00 9.66417 C 53.2250 % 0.62 C
369 15-03-2004 00:00:00 11.64167 C 50.1250 % 1.62 C
370 16-03-2004 00:00:00 12.85583 C 58.2250 % 4.86 C
371 17-03-2004 00:00:00 12.58333 C 59.8917 % 5.01 C
372 18-03-2004 00:00:00 14.18 C 58.5833 % 6.19 C
373 19-03-2004 00:00:00 12.33333 C 63.7167 % 5.66 C
374 20-03-2004 00:00:00 12.1875 C 69.8333 % 6.85 C
375 21-03-2004 00:00:00 9.85583 C 63.6250 % 3.29 C
Sensor: Nr:Datum:Temp:Feuchte:Taupunkt:
Aussen-T/F 376 22-03-2004 00:00:00 6.47917 C 74.0333 % 2.2 C
377 23-03-2004 00:00:00 5.15966 C 79.9412 % 1.99 C
378 24-03-2004 00:00:00 5.735 C 67.2667 % 0.15 C
379 25-03-2004 00:00:00 4.39083 C 64.6417 % -1.67 C
380 26-03-2004 00:00:00 2.8575 C 64.0583 % -3.25 C
381 27-03-2004 00:00:00 2.76167 C 58.3750 % -4.58 C
382 28-03-2004 00:00:00 4.98174 C 53.4261 % -3.68 C
383 29-03-2004 00:00:00 7.27 C 52.3500 % -1.83 C
384 30-03-2004 00:00:00 11.1075 C 44.1333 % -0.63 C
385 31-03-2004 00:00:00 11.83 C 47.6000 % 1.07 C
386 01-04-2004 00:00:00 14.11083 C 46.6750 % 2.88 C
387 02-04-2004 00:00:00 13.71083 C 50.7167 % 3.69 C
388 03-04-2004 00:00:00 12.5275 C 63.6500 % 5.83 C
389 04-04-2004 00:00:00 12.14333 C 55.2083 % 3.44 C
390 05-04-2004 00:00:00 8.31176 C 68.9832 % 2.96 C
391 06-04-2004 00:00:00 6.33333 C 73.8167 % 2.01 C
392 07-04-2004 00:00:00 5.33417 C 77.4500 % 1.72 C
393 08-04-2004 00:00:00 6.565 C 72.1583 % 1.92 C
394 09-04-2004 00:00:00 7.14583 C 67.5833 % 1.56 C
395 10-04-2004 00:00:00 7.875 C 69.6417 % 2.68 C
396 11-04-2004 00:00:00 7.40667 C 63.5833 % 0.96 C
397 12-04-2004 00:00:00 8.5875 C 57.8583 % 0.77 C
398 13-04-2004 00:00:00 10.13917 C 62.4250 % 3.29 C
399 14-04-2004 00:00:00 11.98667 C 51.2917 % 2.26 C
400 15-04-2004 00:00:00 11.55833 C 51.2833 % 1.86 C
Sensor: Nr:Datum:Temp:Feuchte:Taupunkt:
Aussen-T/F 401 16-04-2004 00:00:00 14.20083 C 49.4833 % 3.79 C
402 17-04-2004 00:00:00 14.72521 C 48.3950 % 3.96 C
403 18-04-2004 00:00:00 12.97583 C 55.3583 % 4.25 C
404 19-04-2004 00:00:00 10.14917 C 49.3417 % 0.03 C
405 20-04-2004 00:00:00 10.01083 C 68.2333 % 4.43 C
406 21-04-2004 00:00:00 14.15667 C 65.1250 % 7.71 C
407 22-04-2004 00:00:00 16.29917 C 63.2333 % 9.3 C
408 23-04-2004 00:00:00 13.10417 C 70.9333 % 7.96 C
409 24-04-2004 00:00:00 12.5125 C 57.1583 % 4.28 C
410 25-04-2004 00:00:00 12.58083 C 58.7083 % 4.72 C
411 26-04-2004 00:00:00 14.825 C 52.0000 % 5.07 C
412 27-04-2004 00:00:00 16.15917 C 52.5583 % 6.46 C
413 28-04-2004 00:00:00 16.0125 C 64.0583 % 9.23 C
414 29-04-2004 00:00:00 16.4958 C 71.1681 % 11.26 C
415 30-04-2004 00:00:00 18.50167 C 61.2833 % 10.91 C
416 01-05-2004 00:00:00 14.56639 C 80.0420 % 11.17 C
417 02-05-2004 00:00:00 15.70083 C 62.4167 % 8.55 C
418 03-05-2004 00:00:00 14.50667 C 61.6667 % 7.24 C
419 04-05-2004 00:00:00 14.02167 C 60.7000 % 6.56 C
420 05-05-2004 00:00:00 12.41083 C 53.1750 % 3.16 C
421 06-05-2004 00:00:00 10.04167 C 73.5583 % 5.54 C
422 07-05-2004 00:00:00 8.415 C 89.6833 % 6.82 C
423 08-05-2004 00:00:00 7.58083 C 86.4750 % 5.47 C
424 09-05-2004 00:00:00 10.3025 C 76.3667 % 6.33 C
425 10-05-2004 00:00:00 12.86 C 78.7833 % 9.27 C
Sensor: Nr:Datum:Temp:Feuchte:Taupunkt:
Aussen-T/F 426 11-05-2004 00:00:00 14.43866 C 69.6975 % 8.98 C
427 12-05-2004 00:00:00 12.22583 C 60.6000 % 4.84 C
428 13-05-2004 00:00:00 11.9225 C 63.4583 % 5.22 C
429 14-05-2004 00:00:00 15.3875 C 58.7000 % 7.35 C
430 15-05-2004 00:00:00 14.34333 C 62.5750 % 7.3 C
431 16-05-2004 00:00:00 16.78167 C 57.5167 % 8.36 C
432 17-05-2004 00:00:00 17.8875 C 57.1250 % 9.29 C
433 18-05-2004 00:00:00 18.75917 C 55.0500 % 9.55 C
434 19-05-2004 00:00:00 19.56 C 54.8833 % 10.25 C
435 20-05-2004 00:00:00 19.53 C 51.2000 % 9.19 C
436 21-05-2004 00:00:00 13.19833 C 69.6667 % 7.78 C
437 22-05-2004 00:00:00 10.73083 C 51.5500 % 1.17 C
438 23-05-2004 00:00:00 11.5479 C 48.7731 % 1.15 C
439 24-05-2004 00:00:00 11.78 C 53.7250 % 2.72 C
440 25-05-2004 00:00:00 14.72583 C 52.4750 % 5.11 C
441 26-05-2004 00:00:00 14.9725 C 47.9000 % 4.04 C
442 27-05-2004 00:00:00 12.81083 C 49.9917 % 2.66 C
443 28-05-2004 00:00:00 13.97333 C 52.4583 % 4.41 C
444 29-05-2004 00:00:00 17.0438 C 47.8843 % 5.93 C
445 30-05-2004 00:00:00 18.69077 C 45.3615 % 6.64 C
446 31-05-2004 00:00:00 15.58167 C 78.2917 % 11.82 C
447 01-06-2004 00:00:00 16.40168 C 67.3193 % 10.33 C
448 02-06-2004 00:00:00 14.86303 C 77.4370 % 10.96 C
449 03-06-2004 00:00:00 16.36167 C 73.4833 % 11.61 C
450 04-06-2004 00:00:00 13.82583 C 85.2250 % 11.39 C
Sensor: Nr:Datum:Temp:Feuchte:Taupunkt:
Aussen-T/F 451 05-06-2004 00:00:00 14.33583 C 74.1833 % 9.8 C
452 06-06-2004 00:00:00 16.84667 C 64.0500 % 10.01 C
453 07-06-2004 00:00:00 20.69333 C 54.8667 % 11.3 C
454 08-06-2004 00:00:00 23.6575 C 52.2167 % 13.29 C
455 09-06-2004 00:00:00 24.735 C 57.8917 % 15.89 C
456 10-06-2004 00:00:00 21.21417 C 78.4667 % 17.32 C
457 11-06-2004 00:00:00 18.8725 C 79.4167 % 15.23 C
458 12-06-2004 00:00:00 15.64417 C 73.0083 % 10.83 C
459 13-06-2004 00:00:00 15.35042 C 70.5210 % 10.02 C
460 14-06-2004 00:00:00 17.5175 C 60.5333 % 9.8 C
461 15-06-2004 00:00:00 20.5725 C 61.3083 % 12.87 C
462 16-06-2004 00:00:00 17.205 C 51.2750 % 7.07 C
463 17-06-2004 00:00:00 18.3025 C 55.5417 % 9.26 C
464 18-06-2004 00:00:00 15.54 C 72.5167 % 10.62 C
465 19-06-2004 00:00:00 14.39167 C 66.9833 % 8.35 C
466 20-06-2004 00:00:00 14.56583 C 58.9917 % 6.65 C
467 21-06-2004 00:00:00 14.90333 C 62.9000 % 7.91 C
468 22-06-2004 00:00:00 15.64583 C 77.4250 % 11.71 C
469 23-06-2004 00:00:00 19.17083 C 64.4833 % 12.32 C
470 24-06-2004 00:00:00 16.3775 C 51.3750 % 6.33 C
471 25-06-2004 00:00:00 14.59167 C 62.3833 % 7.49 C
472 26-06-2004 00:00:00 16.39328 C 62.6387 % 9.25 C
473 27-06-2004 00:00:00 20.93475 C 63.2881 % 13.7 C
474 28-06-2004 00:00:00 19.74667 C 46.7750 % 8.05 C
475 29-06-2004 00:00:00 18.54833 C 52.3167 % 8.6 C
Sensor: Nr:Datum:Temp:Feuchte:Taupunkt:
Aussen-T/F 476 30-06-2004 00:00:00 20.9875 C 49.8333 % 10.13 C
477 01-07-2004 00:00:00 18.20084 C 52.5042 % 8.33 C
478 02-07-2004 00:00:00 15.81417 C 67.5167 % 9.82 C
479 03-07-2004 00:00:00 15.91333 C 65.5417 % 9.47 C
480 04-07-2004 00:00:00 15.28 C 72.2667 % 10.32 C
481 05-07-2004 00:00:00 18.50083 C 64.0583 % 11.58 C
482 06-07-2004 00:00:00 19.60833 C 51.6000 % 9.38 C
483 07-07-2004 00:00:00 18.90167 C 63.0917 % 11.73 C
484 08-07-2004 00:00:00 18.76833 C 74.0250 % 14.04 C
485 09-07-2004 00:00:00 15.12333 C 79.2750 % 11.56 C
486 10-07-2004 00:00:00 14.9525 C 69.0167 % 9.32 C
487 11-07-2004 00:00:00 14.95417 C 65.0917 % 8.46 C
488 12-07-2004 00:00:00 14.17 C 77.3167 % 10.26 C
489 13-07-2004 00:00:00 14.57815 C 68.4370 % 8.84 C
490 14-07-2004 00:00:00 16.24083 C 67.6583 % 10.26 C
491 15-07-2004 00:00:00 19.03167 C 78.2417 % 15.16 C
492 16-07-2004 00:00:00 22.7475 C 61.6833 % 15.01 C
493 17-07-2004 00:00:00 21.68 C 70.6750 % 16.12 C
494 18-07-2004 00:00:00 19.98843 C 80.3636 % 16.5 C
495 19-07-2004 00:00:00 21.74667 C 65.6167 % 15.03 C
496 20-07-2004 00:00:00 19.855 C 75.1583 % 15.33 C
497 21-07-2004 00:00:00 22.40083 C 67.3583 % 16.06 C
498 22-07-2004 00:00:00 24.60504 C 62.4958 % 16.97 C
499 23-07-2004 00:00:00 23.33 C 70.3000 % 17.62 C
500 24-07-2004 00:00:00 22.0075 C 55.3000 % 12.64 C
Sensor: Nr:Datum:Temp:Feuchte:Taupunkt:
Aussen-T/F 501 25-07-2004 00:00:00 18.13833 C 64.8750 % 11.43 C
502 26-07-2004 00:00:00 16.53583 C 77.3000 % 12.55 C
503 27-07-2004 00:00:00 18.38 C 63.7250 % 11.39 C
504 28-07-2004 00:00:00 20.28583 C 54.0833 % 10.7 C
505 29-07-2004 00:00:00 21.75917 C 50.1333 % 10.92 C
506 30-07-2004 00:00:00 22.845 C 51.9750 % 12.47 C
507 31-07-2004 00:00:00 23.185 C 58.1083 % 14.5 C
508 01-08-2004 00:00:00 23.30333 C 57.7000 % 14.5 C
509 02-08-2004 00:00:00 23.80917 C 51.5583 % 13.23 C
510 03-08-2004 00:00:00 24.1975 C 49.2417 % 12.89 C
511 04-08-2004 00:00:00 23.40756 C 62.0000 % 15.71 C
512 05-08-2004 00:00:00 25.28167 C 54.2750 % 15.39 C
513 06-08-2004 00:00:00 25.0625 C 52.3333 % 14.62 C
514 07-08-2004 00:00:00 24.03167 C 66.1333 % 17.32 C
515 08-08-2004 00:00:00 24.36 C 62.3167 % 16.69 C
516 09-08-2004 00:00:00 25.4775 C 46.0750 % 13.04 C
517 10-08-2004 00:00:00 22.66333 C 58.0000 % 13.98 C
518 11-08-2004 00:00:00 22.42804 C 75.3645 % 17.85 C
519 12-08-2004 00:00:00 20.15417 C 76.0000 % 15.79 C
520 13-08-2004 00:00:00 17.9625 C 74.5208 % 13.37 C
521 14-08-2004 00:00:00 18.08333 C 79.5208 % 14.49 C
522 15-08-2004 00:00:00 21.52708 C 63.1667 % 14.23 C
523 16-08-2004 00:00:00 20.10625 C 72.5000 % 15.01 C
524 17-08-2004 00:00:00 20.58958 C 77.5417 % 16.53 C
525 18-08-2004 00:00:00 22.67292 C 65.4167 % 15.86 C
Sensor: Nr:Datum:Temp:Feuchte:Taupunkt:
Aussen-T/F 526 19-08-2004 00:00:00 21.05417 C 63.5417 % 13.87 C
527 20-08-2004 00:00:00 18.89583 C 64.2292 % 12 C
528 21-08-2004 00:00:00 15.52708 C 79.5417 % 12.01 C
529 22-08-2004 00:00:00 16.41042 C 64.4792 % 9.7 C
530 23-08-2004 00:00:00 16.42708 C 72.7708 % 11.53 C
531 24-08-2004 00:00:00 17.42083 C 77.5833 % 13.46 C
532 25-08-2004 00:00:00 16.20847 C 73.5424 % 11.48 C
533 26-08-2004 00:00:00 16.76083 C 70.0000 % 11.26 C
534 27-08-2004 00:00:00 15.82269 C 69.9076 % 10.35 C
535 28-08-2004 00:00:00 17.58 C 82.4000 % 14.55 C
536 29-08-2004 00:00:00 18.84917 C 71.7750 % 13.65 C
537 30-08-2004 00:00:00 15.81333 C 77.4250 % 11.88 C
538 31-08-2004 00:00:00 14.84333 C 69.8917 % 9.41 C
539 01-09-2004 00:00:00 15.91667 C 66.9333 % 9.79 C
540 02-09-2004 00:00:00 17.21429 C 65.6639 % 10.73 C
541 03-09-2004 00:00:00 20.0275 C 67.9667 % 13.94 C
542 04-09-2004 00:00:00 21.15083 C 68.3500 % 15.09 C
543 05-09-2004 00:00:00 21.63833 C 66.2833 % 15.08 C
544 06-09-2004 00:00:00 20.35 C 61.9083 % 12.81 C
545 07-09-2004 00:00:00 21.00167 C 60.4083 % 13.05 C
546 08-09-2004 00:00:00 20.15294 C 59.9664 % 12.14 C
547 09-09-2004 00:00:00 18.48167 C 51.1250 % 8.2 C
548 10-09-2004 00:00:00 17.9825 C 53.8167 % 8.5 C
549 11-09-2004 00:00:00 20.54583 C 69.2167 % 14.71 C
550 12-09-2004 00:00:00 17.1475 C 61.9000 % 9.79 C
Sensor: Nr:Datum:Temp:Feuchte:Taupunkt:
Aussen-T/F 551 13-09-2004 00:00:00 17.07 C 61.1250 % 9.53 C
552 14-09-2004 00:00:00 17.45462 C 56.7311 % 8.78 C
553 15-09-2004 00:00:00 14.54333 C 65.4667 % 8.15 C
554 16-09-2004 00:00:00 12.64 C 65.5083 % 6.35 C
555 17-09-2004 00:00:00 13.2175 C 64.3167 % 6.64 C
556 18-09-2004 00:00:00 15.71667 C 64.6333 % 9.08 C
557 19-09-2004 00:00:00 16.38 C 73.0333 % 11.54 C
558 20-09-2004 00:00:00 13.69833 C 64.3083 % 7.09 C
559 21-09-2004 00:00:00 15.01167 C 53.8000 % 5.74 C
560 22-09-2004 00:00:00 12.50168 C 69.4370 % 7.07 C
561 23-09-2004 00:00:00 13.44917 C 89.2500 % 11.72 C
562 24-09-2004 00:00:00 12.08833 C 71.6250 % 7.12 C
563 25-09-2004 00:00:00 12.41167 C 68.9917 % 6.89 C
564 26-09-2004 00:00:00 12.71667 C 74.8833 % 8.38 C
565 27-09-2004 00:00:00 13.985 C 80.9167 % 10.76 C
566 28-09-2004 00:00:00 15.85833 C 76.8667 % 11.81 C
567 29-09-2004 00:00:00 15.4525 C 68.0417 % 9.59 C
568 30-09-2004 00:00:00 13.13583 C 74.7083 % 8.75 C
569 01-10-2004 00:00:00 15.1775 C 72.6833 % 10.31 C
570 02-10-2004 00:00:00 14.82333 C 71.5917 % 9.74 C
571 03-10-2004 00:00:00 13.56417 C 70.9417 % 8.4 C
572 04-10-2004 00:00:00 16.06303 C 71.6807 % 10.95 C
573 05-10-2004 00:00:00 19.11667 C 68.2250 % 13.13 C
574 06-10-2004 00:00:00 14.425 C 80.4500 % 11.11 C
575 07-10-2004 00:00:00 11.63417 C 73.6750 % 7.1 C
Sensor: Nr:Datum:Temp:Feuchte:Taupunkt:
Aussen-T/F 576 08-10-2004 00:00:00 9.55667 C 83.5000 % 6.9 C
577 09-10-2004 00:00:00 10.71833 C 76.3250 % 6.73 C
578 10-10-2004 00:00:00 9.49167 C 67.7083 % 3.83 C
579 11-10-2004 00:00:00 8.54167 C 60.9083 % 1.44 C
580 12-10-2004 00:00:00 8.30333 C 60.1500 % 1.04 C
581 13-10-2004 00:00:00 9.11167 C 77.2750 % 5.35 C
582 14-10-2004 00:00:00 11.28417 C 78.9417 % 7.77 C
583 15-10-2004 00:00:00 10.13917 C 79.0750 % 6.68 C
584 16-10-2004 00:00:00 7.7475 C 85.5000 % 5.47 C
585 17-10-2004 00:00:00 8.67143 C 80.5294 % 5.52 C
586 18-10-2004 00:00:00 9.92417 C 73.9417 % 5.5 C
587 19-10-2004 00:00:00 8.205 C 83.8250 % 5.64 C
588 20-10-2004 00:00:00 12.1075 C 89.2500 % 10.39 C
589 21-10-2004 00:00:00 14.14083 C 68.6500 % 8.47 C
590 22-10-2004 00:00:00 10.405 C 77.9333 % 6.73 C
591 23-10-2004 00:00:00 14.51083 C 72.1583 % 9.56 C
592 24-10-2004 00:00:00 15.26 C 78.4083 % 11.53 C
593 25-10-2004 00:00:00 14.77917 C 69.8083 % 9.33 C
594 26-10-2004 00:00:00 10.89917 C 79.1083 % 7.43 C
595 27-10-2004 00:00:00 9.63083 C 79.6500 % 6.29 C
596 28-10-2004 00:00:00 12.44833 C 79.7750 % 9.06 C
597 29-10-2004 00:00:00 12.78908 C 85.4202 % 10.41 C
598 30-10-2004 00:00:00 10.50417 C 90.2583 % 8.98 C
599 31-10-2004 00:00:00 10.9848 C 82.0720 % 8.05 C
600 01-11-2004 00:00:00 9.905 C 78.6833 % 6.38 C
Sensor: Nr:Datum:Temp:Feuchte:Taupunkt:
Aussen-T/F 601 02-11-2004 00:00:00 10.325 C 80.0667 % 7.04 C
602 03-11-2004 00:00:00 10.58917 C 88.1667 % 8.71 C
603 04-11-2004 00:00:00 10.43417 C 93.4417 % 9.42 C
604 05-11-2004 00:00:00 8.9725 C 76.3917 % 5.05 C
605 06-11-2004 00:00:00 7.45417 C 84.7250 % 5.05 C
606 07-11-2004 00:00:00 5.835 C 89.5417 % 4.25 C
607 08-11-2004 00:00:00 3.9825 C 92.0750 % 2.82 C
608 09-11-2004 00:00:00 2.1375 C 87.1083 % 0.22 C
609 10-11-2004 00:00:00 1.37667 C 93.5083 % 0.45 C
610 11-11-2004 00:00:00 3.1563 C 86.1681 % 1.07 C
611 12-11-2004 00:00:00 4.21333 C 82.0917 % 1.44 C
612 13-11-2004 00:00:00 4.75583 C 80.5083 % 1.7 C
613 14-11-2004 00:00:00 3.52333 C 80.9833 % 0.57 C
614 15-11-2004 00:00:00 2.90583 C 84.4000 % 0.54 C
615 16-11-2004 00:00:00 6.5475 C 78.0750 % 3.01 C
616 17-11-2004 00:00:00 9.91917 C 75.4000 % 5.78 C
617 18-11-2004 00:00:00 9.40583 C 79.1750 % 5.99 C
618 19-11-2004 00:00:00 3.91083 C 71.1417 % -0.83 C
619 20-11-2004 00:00:00 2.23583 C 60.8500 % -4.52 C
620 21-11-2004 00:00:00 0.33333 C 76.7833 % -3.25 C
621 22-11-2004 00:00:00 8.65583 C 79.0000 % 5.22 C
622 23-11-2004 00:00:00 7.97563 C 83.1429 % 5.3 C
623 24-11-2004 00:00:00 1.78417 C 86.8750 % -0.16 C
624 25-11-2004 00:00:00 -0.49667 C 85.4500 % -2.63 C
625 26-11-2004 00:00:00 3.6775 C 76.6000 % -0.04 C
Sensor: Nr:Datum:Temp:Feuchte:Taupunkt:
Aussen-T/F 626 27-11-2004 00:00:00 7.69167 C 78.5583 % 4.21 C
627 28-11-2004 00:00:00 8.34417 C 72.1833 % 3.64 C
628 29-11-2004 00:00:00 5.86583 C 78.1750 % 2.36 C
629 30-11-2004 00:00:00 2.81167 C 83.5917 % 0.32 C
630 01-12-2004 00:00:00 4.71167 C 77.3333 % 1.09 C
631 02-12-2004 00:00:00 4.24333 C 74.9083 % 0.2 C
632 03-12-2004 00:00:00 3.0975 C 88.2167 % 1.34 C
633 04-12-2004 00:00:00 1.99667 C 82.7417 % -0.62 C
634 05-12-2004 00:00:00 1.255 C 78.9750 % -1.98 C
635 06-12-2004 00:00:00 4.54622 C 80.5546 % 1.5 C
636 07-12-2004 00:00:00 4.37667 C 74.4250 % 0.24 C
637 08-12-2004 00:00:00 5.02833 C 73.5417 % 0.7 C
638 09-12-2004 00:00:00 -0.1025 C 80.9083 % -2.98 C
639 10-12-2004 00:00:00 -3.5675 C 86.2917 % -5.52 C
640 11-12-2004 00:00:00 -2.575 C 86.5500 % -4.5 C
641 12-12-2004 00:00:00 -1.58833 C 74.9583 % -5.44 C
642 13-12-2004 00:00:00 -1.33917 C 73.0333 % -5.54 C
643 14-12-2004 00:00:00 -2.87083 C 78.6333 % -6.06 C
644 15-12-2004 00:00:00 -3.50917 C 86.1167 % -5.49 C
645 16-12-2004 00:00:00 -0.65333 C 87.2000 % -2.51 C
646 17-12-2004 00:00:00 5.17667 C 81.4083 % 2.26 C
647 18-12-2004 00:00:00 3.6479 C 74.2605 % -0.5 C
648 19-12-2004 00:00:00 1.25083 C 80.6333 % -1.7 C
649 20-12-2004 00:00:00 -2.95667 C 82.7583 % -5.47 C
650 21-12-2004 00:00:00 -6.37167 C 79.9333 % -9.26 C
Sensor: Nr:Datum:Temp:Feuchte:Taupunkt:
Aussen-T/F 651 22-12-2004 00:00:00 -1.36667 C 78.1500 % -4.67 C
652 23-12-2004 00:00:00 5.19667 C 80.9000 % 2.19 C
653 24-12-2004 00:00:00 8.21833 C 76.9750 % 4.43 C
654 25-12-2004 00:00:00 6.31333 C 74.3000 % 2.09 C
655 26-12-2004 00:00:00 1.5975 C 85.4417 % -0.57 C
656 27-12-2004 00:00:00 1.34167 C 69.8583 % -3.54 C
657 28-12-2004 00:00:00 0.25917 C 76.1000 % -3.44 C
658 29-12-2004 00:00:00 2.37333 C 83.4250 % -0.14 C
659 30-12-2004 00:00:00 3.3325 C 76.1083 % -0.46 C
660 31-12-2004 00:00:00 6.41333 C 80.2417 % 3.26 C
661 01-01-2005 00:00:00 7.80171 C 76.6923 % 3.97 C
662 02-01-2005 00:00:00 5.9225 C 61.2917 % -0.94 C
663 03-01-2005 00:00:00 4.92521 C 68.6387 % -0.35 C
664 04-01-2005 00:00:00 5.78083 C 68.9083 % 0.53 C
665 05-01-2005 00:00:00 4.83917 C 78.0167 % 1.34 C
666 06-01-2005 00:00:00 6.5425 C 76.7333 % 2.76 C
667 07-01-2005 00:00:00 10.02917 C 65.2917 % 3.83 C
668 08-01-2005 00:00:00 9.30079 C 57.8254 % 1.43 C
669 09-01-2005 00:00:00 6.9625 C 63.9583 % 0.62 C
670 10-01-2005 00:00:00 10.83083 C 62.5833 % 3.98 C
671 11-01-2005 00:00:00 9.06807 C 66.8824 % 3.25 C
672 12-01-2005 00:00:00 8.70833 C 71.3333 % 3.82 C
673 13-01-2005 00:00:00 4.19917 C 67.5083 % -1.27 C
674 14-01-2005 00:00:00 1.69333 C 77.4417 % -1.82 C
675 15-01-2005 00:00:00 -0.22583 C 81.1000 % -3.07 C
Sensor: Nr:Datum:Temp:Feuchte:Taupunkt:
Aussen-T/F 676 16-01-2005 00:00:00 -2.78333 C 81.7083 % -5.47 C
677 17-01-2005 00:00:00 2.64583 C 78.6250 % -0.69 C
678 18-01-2005 00:00:00 4.8275 C 77.3583 % 1.21 C
679 19-01-2005 00:00:00 3.46917 C 73.5167 % -0.81 C
680 20-01-2005 00:00:00 8.7 C 71.8833 % 3.92 C
681 21-01-2005 00:00:00 6.0475 C 55.7333 % -2.12 C
682 22-01-2005 00:00:00 3.84167 C 68.3500 % -1.44 C
683 23-01-2005 00:00:00 2.245 C 76.4083 % -1.46 C
684 24-01-2005 00:00:00 -0.1275 C 69.0083 % -5.12 C
685 25-01-2005 00:00:00 -1.08333 C 61.7917 % -7.47 C
686 26-01-2005 00:00:00 -0.69496 C 54.8571 % -8.63 C
687 27-01-2005 00:00:00 -2.94167 C 67.1250 % -8.17 C
688 28-01-2005 00:00:00 -0.65417 C 72.5083 % -4.97 C
689 29-01-2005 00:00:00 -3.79333 C 69.2500 % -8.59 C
690 30-01-2005 00:00:00 -1.29083 C 69.3667 % -6.17 C
691 31-01-2005 00:00:00 3.05083 C 82.3083 % 0.34 C
692 01-02-2005 00:00:00 3.62917 C 74.6333 % -0.45 C
693 02-02-2005 00:00:00 4.28417 C 82.6250 % 1.6 C
694 03-02-2005 00:00:00 5.17 C 78.2833 % 1.71 C
695 04-02-2005 00:00:00 2.60917 C 79.2583 % -0.61 C
696 05-02-2005 00:00:00 -0.30583 C 67.3833 % -5.6 C
697 06-02-2005 00:00:00 0.64333 C 59.0917 % -6.41 C
698 07-02-2005 00:00:00 -0.38034 C 66.2137 % -5.9 C
699 08-02-2005 00:00:00 -0.04333 C 79.4917 % -3.16 C
700 09-02-2005 00:00:00 1.38333 C 79.0000 % -1.85 C
Sensor: Nr:Datum:Temp:Feuchte:Taupunkt:
Aussen-T/F 701 10-02-2005 00:00:00 5.81917 C 73.1167 % 1.39 C
702 11-02-2005 00:00:00 8.145 C 79.2250 % 4.77 C
703 12-02-2005 00:00:00 9.7825 C 74.4333 % 5.46 C
704 13-02-2005 00:00:00 3.3175 C 69.3917 % -1.74 C
705 14-02-2005 00:00:00 1.97917 C 80.3750 % -1.03 C
706 15-02-2005 00:00:00 0.3958 C 73.7731 % -3.73 C
707 16-02-2005 00:00:00 -0.49083 C 65.7250 % -6.11 C
708 17-02-2005 00:00:00 -0.4075 C 61.2333 % -6.95 C
709 18-02-2005 00:00:00 -0.81333 C 58.3083 % -7.96 C
710 19-02-2005 00:00:00 0.64583 C 79.5583 % -2.47 C
711 20-02-2005 00:00:00 1.39083 C 79.6250 % -1.74 C
712 21-02-2005 00:00:00 1.055 C 78.7250 % -2.22 C
713 22-02-2005 00:00:00 -0.25196 C 63.7353 % -6.28 C
714 23-02-2005 00:00:00 -1.68333 C 69.4722 % -6.52 C
715 24-02-2005 00:00:00 -1.31111 C 65.5972 % -6.91 C
716 25-02-2005 00:00:00 -2.17778 C 65.8750 % -7.69 C
717 26-02-2005 00:00:00 -0.5 C 73.8889 % -4.57 C
718 27-02-2005 00:00:00 -3.63472 C 60.6528 % -10.12 C
719 28-02-2005 00:00:00 -6.9625 C 55.3333 % -14.39 C
720 01-03-2005 00:00:00 -5.96528 C 43.6806 % -16.32 C
721 02-03-2005 00:00:00 -1.48056 C 40.0000 % -13.31 C
722 03-03-2005 00:00:00 -0.1375 C 45.3750 % -10.53 C
723 04-03-2005 00:00:00 -0.27982 C 55.5965 % -8.07 C
724 05-03-2005 00:00:00 -0.07014 C 66.0417 % -5.64 C
725 06-03-2005 00:00:00 -1.81042 C 53.8611 % -9.91 C
Sensor: Nr:Datum:Temp:Feuchte:Taupunkt:
Aussen-T/F 726 07-03-2005 00:00:00 1.11888 C 68.0140 % -4.11 C
727 08-03-2005 00:00:00 3.91111 C 74.5903 % -0.18 C
728 09-03-2005 00:00:00 3.77708 C 78.4028 % 0.38 C
729 10-03-2005 00:00:00 4.05347 C 63.5486 % -2.22 C
730 11-03-2005 00:00:00 2.94028 C 66.2986 % -2.71 C
731 12-03-2005 00:00:00 2.99514 C 68.1111 % -2.3 C
732 13-03-2005 00:00:00 4.81528 C 53.3264 % -3.86 C
733 14-03-2005 00:00:00 5.70208 C 49.5069 % -4.02 C
734 15-03-2005 00:00:00 7.14306 C 51.8542 % -2.07 C
735 16-03-2005 00:00:00 12.97083 C 51.4653 % 3.21 C
736 17-03-2005 00:00:00 14.52308 C 53.6783 % 5.25 C
737 18-03-2005 00:00:00 14.71528 C 59.9583 % 7.03 C
738 19-03-2005 00:00:00 13.49931 C 71.6736 % 8.49 C
739 20-03-2005 00:00:00 11.45278 C 54.7986 % 2.69 C
740 21-03-2005 00:00:00 9.87917 C 48.8819 % -0.35 C
741 22-03-2005 00:00:00 11.33056 C 50.6389 % 1.47 C
742 23-03-2005 00:00:00 14.70556 C 65.3611 % 8.28 C
743 24-03-2005 00:00:00 12.16597 C 72.2639 % 7.33 C
744 25-03-2005 00:00:00 13.2875 C 72.5556 % 8.47 C
745 26-03-2005 00:00:00 12.16515 C 71.1288 % 7.1 C
746 27-03-2005 00:00:00 12.68783 C 83.8783 % 10.04 C
747 28-03-2005 00:00:00 12.38833 C 79.1583 % 8.88 C
748 29-03-2005 00:00:00 13.05 C 72.0417 % 8.13 C
749 30-03-2005 00:00:00 11.45917 C 85.4333 % 9.1 C
750 31-03-2005 00:00:00 11.39 C 68.8250 % 5.88 C
Sensor: Nr:Datum:Temp:Feuchte:Taupunkt:
Aussen-T/F 751 01-04-2005 00:00:00 10.41583 C 46.5667 % -0.52 C
752 02-04-2005 00:00:00 10.82167 C 47.0083 % -0.02 C
753 03-04-2005 00:00:00 12.61333 C 47.7583 % 1.84 C
754 04-04-2005 00:00:00 13.35333 C 49.8917 % 3.13 C
755 05-04-2005 00:00:00 11.55833 C 62.0167 % 4.54 C
756 06-04-2005 00:00:00 10.38083 C 63.8500 % 3.84 C
757 07-04-2005 00:00:00 12.06833 C 59.4083 % 4.41 C
758 08-04-2005 00:00:00 7.8825 C 77.3417 % 4.17 C
759 09-04-2005 00:00:00 5.93277 C 58.7059 % -1.52 C
760 10-04-2005 00:00:00 7.76583 C 67.4667 % 2.13 C
761 11-04-2005 00:00:00 10.6825 C 66.2750 % 4.66 C
762 12-04-2005 00:00:00 11.34333 C 66.3167 % 5.3 C
763 13-04-2005 00:00:00 12.79833 C 60.5917 % 5.38 C
764 14-04-2005 00:00:00 13.26 C 58.4667 % 5.3 C
765 15-04-2005 00:00:00 12.42583 C 64.6167 % 5.95 C
766 16-04-2005 00:00:00 10.05167 C 81.7333 % 7.08 C
767 17-04-2005 00:00:00 11.35583 C 81.7333 % 8.35 C
768 18-04-2005 00:00:00 14.87083 C 62.1667 % 7.7 C
769 19-04-2005 00:00:00 9.63167 C 88.5667 % 7.84 C
770 20-04-2005 00:00:00 9.0325 C 79.3083 % 5.65 C
771 21-04-2005 00:00:00 8.66134 C 54.7479 % 0.08 C
772 22-04-2005 00:00:00 10.07 C 49.4583 % -0.01 C
773 23-04-2005 00:00:00 10.6975 C 61.0833 % 3.51 C
774 24-04-2005 00:00:00 14.47 C 71.4417 % 9.37 C
775 25-04-2005 00:00:00 13.27583 C 85.5000 % 10.9 C
Sensor: Nr:Datum:Temp:Feuchte:Taupunkt:
Aussen-T/F 776 26-04-2005 00:00:00 13.5575 C 70.0000 % 8.2 C
777 27-04-2005 00:00:00 13.41667 C 63.3500 % 6.6 C
778 28-04-2005 00:00:00 13.73417 C 57.6750 % 5.55 C
779 29-04-2005 00:00:00 16.11 C 71.3333 % 10.92 C
780 30-04-2005 00:00:00 20.35917 C 61.9500 % 12.83 C
781 01-05-2005 00:00:00 21.73417 C 55.5833 % 12.46 C
782 02-05-2005 00:00:00 20.5605 C 54.6555 % 11.12 C
783 03-05-2005 00:00:00 17.2475 C 66.8500 % 11.04 C
784 04-05-2005 00:00:00 12.76667 C 84.8250 % 10.28 C
785 05-05-2005 00:00:00 12.50167 C 61.8167 % 5.39 C
786 06-05-2005 00:00:00 11.26583 C 62.7917 % 4.44 C
787 07-05-2005 00:00:00 8.97167 C 75.9833 % 4.97 C
788 08-05-2005 00:00:00 7.88333 C 73.4417 % 3.44 C
789 09-05-2005 00:00:00 8.5025 C 68.2583 % 3 C
790 10-05-2005 00:00:00 9.0275 C 61.5500 % 2.05 C
791 11-05-2005 00:00:00 10.67 C 57.1500 % 2.55 C
792 12-05-2005 00:00:00 12.34917 C 54.1333 % 3.35 C
793 13-05-2005 00:00:00 13.33583 C 48.9417 % 2.84 C
794 14-05-2005 00:00:00 11.34917 C 86.9917 % 9.26 C
795 15-05-2005 00:00:00 10.61176 C 72.2689 % 5.83 C
796 16-05-2005 00:00:00 12.49 C 67.3167 % 6.61 C
797 17-05-2005 00:00:00 10.19 C 68.1000 % 4.58 C
798 18-05-2005 00:00:00 9.50333 C 59.0833 % 1.92 C
799 19-05-2005 00:00:00 13.98667 C 50.5750 % 3.9 C
800 20-05-2005 00:00:00 18.82 C 48.6167 % 7.77 C
Sensor: Nr:Datum:Temp:Feuchte:Taupunkt:
Aussen-T/F 801 21-05-2005 00:00:00 17.09333 C 72.4083 % 12.1 C
802 22-05-2005 00:00:00 16.69167 C 69.7500 % 11.14 C
803 23-05-2005 00:00:00 15.47 C 66.7750 % 9.33 C
804 24-05-2005 00:00:00 15.2125 C 57.4750 % 6.88 C
805 25-05-2005 00:00:00 20.55083 C 50.8167 % 10.02 C
806 26-05-2005 00:00:00 23.19417 C 50.7500 % 12.43 C
807 27-05-2005 00:00:00 25.4563 C 47.6723 % 13.54 C
808 28-05-2005 00:00:00 25.91333 C 48.8500 % 14.33 C
809 29-05-2005 00:00:00 24.1375 C 45.5333 % 11.64 C
810 30-05-2005 00:00:00 14.91167 C 80.5667 % 11.6 C
811 31-05-2005 00:00:00 14.53333 C 57.9500 % 6.36 C
812 01-06-2005 00:00:00 15.82667 C 53.3167 % 6.36 C
813 02-06-2005 00:00:00 18.09167 C 53.5583 % 8.53 C
814 03-06-2005 00:00:00 20.99667 C 58.9583 % 12.67 C
815 04-06-2005 00:00:00 16.485 C 61.0250 % 8.95 C
816 05-06-2005 00:00:00 14.8025 C 61.1167 % 7.39 C
817 06-06-2005 00:00:00 15.25917 C 59.7750 % 7.5 C
818 07-06-2005 00:00:00 12.26 C 46.3583 % 1.1 C
819 08-06-2005 00:00:00 13.41429 C 53.6723 % 4.22 C
820 09-06-2005 00:00:00 15.84167 C 49.5917 % 5.33 C
821 10-06-2005 00:00:00 16.15833 C 51.7500 % 6.24 C
822 11-06-2005 00:00:00 14.58 C 49.1583 % 4.05 C
823 12-06-2005 00:00:00 14.0525 C 51.8333 % 4.31 C
824 13-06-2005 00:00:00 17.27833 C 44.7333 % 5.16 C
825 14-06-2005 00:00:00 16.55583 C 60.6500 % 8.93 C
Sensor: Nr:Datum:Temp:Feuchte:Taupunkt:
Aussen-T/F 826 15-06-2005 00:00:00 20.05167 C 58.3500 % 11.63 C
827 16-06-2005 00:00:00 21.46833 C 48.2167 % 10.07 C
828 17-06-2005 00:00:00 21.405 C 64.8917 % 14.53 C
829 18-06-2005 00:00:00 25.12583 C 46.0750 % 12.72 C
830 19-06-2005 00:00:00 24.75417 C 36.1083 % 8.73 C
831 20-06-2005 00:00:00 25.94538 C 41.2857 % 11.79 C
832 21-06-2005 00:00:00 26.24583 C 44.1417 % 13.08 C
833 22-06-2005 00:00:00 24.59333 C 41.9833 % 10.83 C
834 23-06-2005 00:00:00 25.40417 C 42.0500 % 11.58 C
835 24-06-2005 00:00:00 27.67167 C 39.7417 % 12.75 C
836 25-06-2005 00:00:00 24.93083 C 53.8750 % 14.95 C
837 26-06-2005 00:00:00 23.99833 C 53.9000 % 14.09 C
838 27-06-2005 00:00:00 25.26083 C 46.1167 % 12.86 C
839 28-06-2005 00:00:00 26.35917 C 40.1000 % 11.72 C
840 29-06-2005 00:00:00 23.065 C 62.9083 % 15.62 C
841 30-06-2005 00:00:00 20.43667 C 70.3917 % 14.87 C
842 01-07-2005 00:00:00 18.08083 C 71.9750 % 12.95 C
843 02-07-2005 00:00:00 19.26807 C 74.1765 % 14.56 C
844 03-07-2005 00:00:00 24.03333 C 60.5250 % 15.93 C
845 04-07-2005 00:00:00 21.58833 C 60.0917 % 13.52 C
846 05-07-2005 00:00:00 17.17083 C 49.4250 % 6.5 C
847 06-07-2005 00:00:00 16.24167 C 66.5750 % 10.02 C
848 07-07-2005 00:00:00 14.92 C 74.1750 % 10.37 C
849 08-07-2005 00:00:00 16.17583 C 68.9333 % 10.47 C
850 09-07-2005 00:00:00 19.5375 C 58.5083 % 11.19 C
Sensor: Nr:Datum:Temp:Feuchte:Taupunkt:
Aussen-T/F 851 10-07-2005 00:00:00 22.93917 C 52.6583 % 12.75 C
852 11-07-2005 00:00:00 23.77333 C 50.4500 % 12.87 C
853 12-07-2005 00:00:00 23.70667 C 55.3750 % 14.24 C
854 13-07-2005 00:00:00 25.555 C 48.8500 % 14.01 C
855 14-07-2005 00:00:00 25.76723 C 51.5462 % 15.03 C
856 15-07-2005 00:00:00 25.0575 C 51.5417 % 14.38 C
857 16-07-2005 00:00:00 23.73917 C 53.4583 % 13.73 C
858 17-07-2005 00:00:00 23.48167 C 44.8750 % 10.83 C
859 18-07-2005 00:00:00 22.98917 C 50.5583 % 12.18 C
860 19-07-2005 00:00:00 19.165 C 61.4250 % 11.57 C
861 20-07-2005 00:00:00 17.92333 C 58.8667 % 9.77 C
862 21-07-2005 00:00:00 16.6875 C 58.3833 % 8.49 C
863 22-07-2005 00:00:00 17.13833 C 59.9250 % 9.3 C
864 23-07-2005 00:00:00 17.69 C 50.6583 % 7.34 C
865 24-07-2005 00:00:00 17.87167 C 73.8250 % 13.14 C
866 25-07-2005 00:00:00 20.895 C 64.5167 % 13.96 C
867 26-07-2005 00:00:00 20.33361 C 61.0000 % 12.57 C
868 27-07-2005 00:00:00 23.76 C 61.3083 % 15.87 C
869 28-07-2005 00:00:00 25.00583 C 63.7250 % 17.65 C
870 29-07-2005 00:00:00 23.18917 C 66.9750 % 16.72 C
871 30-07-2005 00:00:00 20.03083 C 65.7167 % 13.42 C
872 31-07-2005 00:00:00 17.3425 C 72.6917 % 12.39 C
873 01-08-2005 00:00:00 19.36167 C 66.0333 % 12.86 C
874 02-08-2005 00:00:00 19.71 C 53.9167 % 10.12 C
875 03-08-2005 00:00:00 18.86917 C 55.2500 % 9.71 C
Sensor: Nr:Datum:Temp:Feuchte:Taupunkt:
Aussen-T/F 876 04-08-2005 00:00:00 17.4025 C 58.4917 % 9.19 C
877 05-08-2005 00:00:00 16.13083 C 71.8250 % 11.05 C
878 06-08-2005 00:00:00 16.02 C 66.0083 % 9.68 C
879 07-08-2005 00:00:00 13.69412 C 68.4706 % 8 C
880 08-08-2005 00:00:00 14.66667 C 70.6500 % 9.4 C
881 09-08-2005 00:00:00 16.6775 C 60.2583 % 8.95 C
882 10-08-2005 00:00:00 16.66083 C 52.9333 % 7.03 C
883 11-08-2005 00:00:00 17.4125 C 63.9500 % 10.53 C
884 12-08-2005 00:00:00 18.20917 C 72.7750 % 13.24 C
885 13-08-2005 00:00:00 18.01833 C 57.5000 % 9.51 C
886 14-08-2005 00:00:00 15.59833 C 79.0417 % 11.98 C
887 15-08-2005 00:00:00 14.56583 C 88.2417 % 12.64 C
888 16-08-2005 00:00:00 19.1575 C 67.6917 % 13.04 C
889 17-08-2005 00:00:00 20.12333 C 61.6083 % 12.52 C
890 18-08-2005 00:00:00 22.1825 C 58.2167 % 13.59 C
891 19-08-2005 00:00:00 21.06975 C 68.0588 % 14.95 C
892 20-08-2005 00:00:00 19.5825 C 63.5417 % 12.48 C
893 21-08-2005 00:00:00 17.13083 C 77.8500 % 13.24 C
894 22-08-2005 00:00:00 18.24 C 75.6917 % 13.88 C
895 23-08-2005 00:00:00 19.4425 C 68.1167 % 13.41 C
896 24-08-2005 00:00:00 18.79417 C 64.0500 % 11.86 C
897 25-08-2005 00:00:00 16.47333 C 71.7333 % 11.36 C
898 26-08-2005 00:00:00 15.255 C 66.1000 % 8.97 C
899 27-08-2005 00:00:00 16.45083 C 64.5083 % 9.74 C
900 28-08-2005 00:00:00 17.84083 C 61.5000 % 10.35 C
Sensor: Nr:Datum:Temp:Feuchte:Taupunkt:
Aussen-T/F 901 29-08-2005 00:00:00 19.6675 C 59.4833 % 11.56 C
902 30-08-2005 00:00:00 21.65667 C 57.4083 % 12.88 C
903 31-08-2005 00:00:00 23.08403 C 55.8655 % 13.8 C
904 01-09-2005 00:00:00 22.76917 C 59.9583 % 14.59 C
905 02-09-2005 00:00:00 21.29917 C 64.1240 % 14.25 C
906 03-09-2005 00:00:00 22.07899 C 57.4622 % 13.29 C
907 04-09-2005 00:00:00 21.90417 C 55.0083 % 12.46 C
908 05-09-2005 00:00:00 21.3675 C 50.7250 % 10.74 C
909 06-09-2005 00:00:00 20.89417 C 58.8167 % 12.54 C
910 07-09-2005 00:00:00 22.66167 C 56.7417 % 13.64 C
911 08-09-2005 00:00:00 23.19833 C 58.3917 % 14.58 C
912 09-09-2005 00:00:00 21.58833 C 66.9583 % 15.19 C
913 10-09-2005 00:00:00 21.80833 C 66.0417 % 15.19 C
914 11-09-2005 00:00:00 18.13 C 89.9083 % 16.45 C
915 12-09-2005 00:00:00 16.6975 C 91.7750 % 15.35 C
916 13-09-2005 00:00:00 17.45833 C 71.4333 % 12.24 C
917 14-09-2005 00:00:00 16.755 C 70.2083 % 11.3 C
918 15-09-2005 00:00:00 20.13361 C 65.1765 % 13.39 C
919 16-09-2005 00:00:00 15.17311 C 74.6975 % 10.72 C
920 17-09-2005 00:00:00 11.81667 C 63.3083 % 5.08 C
921 18-09-2005 00:00:00 11.7875 C 64.8917 % 5.41 C
922 19-09-2005 00:00:00 12.0719 C 62.3967 % 5.11 C
923 20-09-2005 00:00:00 12.19583 C 66.2750 % 6.1 C
924 21-09-2005 00:00:00 13.40667 C 65.8333 % 7.15 C
925 22-09-2005 00:00:00 13.94833 C 67.3750 % 8.01 C
Sensor: Nr:Datum:Temp:Feuchte:Taupunkt:
Aussen-T/F 926 23-09-2005 00:00:00 14.84667 C 68.8083 % 9.18 C
927 24-09-2005 00:00:00 15.92583 C 70.7250 % 10.62 C
928 25-09-2005 00:00:00 17.7325 C 69.2917 % 12.04 C
929 26-09-2005 00:00:00 16.44083 C 67.6000 % 10.43 C
930 27-09-2005 00:00:00 17.605 C 57.1571 % 9.03 C
931 28-09-2005 00:00:00 15.42917 C 67.5417 % 9.46 C
932 29-09-2005 00:00:00 12.91254 C 70.3659 % 7.66 C
933 30-09-2005 00:00:00 12.29549 C 64.7639 % 5.86 C
934 01-10-2005 00:00:00 12.61701 C 87.6771 % 10.63 C
935 02-10-2005 00:00:00 10.70833 C 86.1250 % 8.49 C
936 03-10-2005 00:00:00 11.3875 C 83.3819 % 8.67 C
937 04-10-2005 00:00:00 14.26864 C 74.5958 % 9.82 C
938 05-10-2005 00:00:00 16.7441 C 72.6597 % 11.81 C
939 06-10-2005 00:00:00 16.68194 C 72.2708 % 11.67 C
940 07-10-2005 00:00:00 14.36563 C 76.8229 % 10.36 C
941 08-10-2005 00:00:00 13.06285 C 81.6875 % 10.01 C
942 09-10-2005 00:00:00 14.51049 C 78.2972 % 10.78 C
943 10-10-2005 00:00:00 15.84132 C 72.8993 % 10.99 C
944 11-10-2005 00:00:00 13.49444 C 78.7674 % 9.88 C
945 12-10-2005 00:00:00 13.54549 C 77.6875 % 9.73 C
946 13-10-2005 00:00:00 12.36181 C 78.1493 % 8.67 C
947 14-10-2005 00:00:00 11.9951 C 78.1469 % 8.31 C
948 15-10-2005 00:00:00 11.45174 C 79.6771 % 8.07 C
949 16-10-2005 00:00:00 10.83472 C 74.6632 % 6.52 C
950 17-10-2005 00:00:00 8.28194 C 67.9167 % 2.72 C
Sensor: Nr:Datum:Temp:Feuchte:Taupunkt:
Aussen-T/F 951 18-10-2005 00:00:00 8.65749 C 62.2822 % 1.86 C
952 19-10-2005 00:00:00 7.00417 C 82.2535 % 4.19 C
953 20-10-2005 00:00:00 11.25382 C 89.2708 % 9.55 C
954 21-10-2005 00:00:00 14.43681 C 83.5174 % 11.68 C
955 22-10-2005 00:00:00 15.54896 C 76.8021 % 11.5 C
956 23-10-2005 00:00:00 14.24321 C 74.8014 % 9.84 C
957 24-10-2005 00:00:00 12.10545 C 78.5000 % 8.48 C
958 25-10-2005 00:00:00 15.69143 C 65.7286 % 9.3 C
959 26-10-2005 00:00:00 16.07417 C 70.0667 % 10.62 C
960 27-10-2005 00:00:00 14.98583 C 78.1250 % 11.21 C
961 28-10-2005 00:00:00 16.07721 C 72.5221 % 11.14 C
962 29-10-2005 00:00:00 13.94583 C 75.9653 % 9.78 C
963 30-10-2005 00:00:00 12.71467 C 78.3867 % 9.05 C
964 31-10-2005 00:00:00 13.11667 C 71.0764 % 8 C
965 01-11-2005 00:00:00 12.41319 C 78.1181 % 8.71 C
966 02-11-2005 00:00:00 10.43819 C 87.5278 % 8.46 C
967 03-11-2005 00:00:00 14.78403 C 78.9306 % 11.17 C
968 04-11-2005 00:00:00 13.39444 C 85.8750 % 11.08 C
969 05-11-2005 00:00:00 8.99792 C 79.7361 % 5.69 C
970 06-11-2005 00:00:00 9.96224 C 78.1189 % 6.33 C
971 07-11-2005 00:00:00 8.03611 C 86.5347 % 5.93 C
972 08-11-2005 00:00:00 10.35903 C 77.0208 % 6.51 C
973 09-11-2005 00:00:00 7.83194 C 86.7222 % 5.76 C
974 10-11-2005 00:00:00 9.97639 C 76.8889 % 6.12 C
975 11-11-2005 00:00:00 9.26736 C 82.5208 % 6.45 C
Sensor: Nr:Datum:Temp:Feuchte:Taupunkt:
Aussen-T/F 976 12-11-2005 00:00:00 7.83611 C 73.2778 % 3.36 C
977 13-11-2005 00:00:00 9.98542 C 79.1181 % 6.54 C
978 14-11-2005 00:00:00 7.76458 C 80.0625 % 4.55 C
979 15-11-2005 00:00:00 6.09931 C 81.0417 % 3.1 C
980 16-11-2005 00:00:00 5.71806 C 81.8125 % 2.86 C
981 17-11-2005 00:00:00 4.69231 C 73.1049 % 0.3 C
982 18-11-2005 00:00:00 3.75903 C 75.9583 % -0.08 C
983 19-11-2005 00:00:00 1.67431 C 81.9583 % -1.07 C
984 20-11-2005 00:00:00 1.75625 C 85.0069 % -0.49 C
985 21-11-2005 00:00:00 4.09236 C 87.1319 % 2.15 C
986 22-11-2005 00:00:00 -0.87778 C 86.8194 % -2.79 C
987 23-11-2005 00:00:00 0.84861 C 80.0347 % -2.19 C
988 24-11-2005 00:00:00 2.37778 C 81.2431 % -0.5 C
989 25-11-2005 00:00:00 1.54167 C 66.6111 % -3.98 C
990 26-11-2005 00:00:00 2.46111 C 57.2569 % -5.11 C
991 27-11-2005 00:00:00 2.30979 C 77.3497 % -1.24 C
992 28-11-2005 00:00:00 1.92847 C 86.3819 % -0.1 C
993 29-11-2005 00:00:00 2.30694 C 78.1597 % -1.1 C
994 30-11-2005 00:00:00 2.00069 C 72.1736 % -2.47 C
995 01-12-2005 00:00:00 0.41875 C 70.7847 % -4.25 C
996 02-12-2005 00:00:00 0.22153 C 68.6319 % -4.85 C
997 03-12-2005 00:00:00 3.82708 C 79.6736 % 0.65 C
998 04-12-2005 00:00:00 7.05417 C 86.6528 % 4.98 C
999 05-12-2005 00:00:00 6.35208 C 77.8194 % 2.77 C
1000 06-12-2005 00:00:00 4.99583 C 75.7986 % 1.09 C
Sensor: Nr:Datum:Temp:Feuchte:Taupunkt:
Aussen-T/F 1001 07-12-2005 00:00:00 4.93706 C 82.1049 % 2.15 C
1002 08-12-2005 00:00:00 4.74653 C 77.5625 % 1.17 C
1003 09-12-2005 00:00:00 3.66458 C 81.8681 % 0.86 C
1004 10-12-2005 00:00:00 -0.92292 C 83.1944 % -3.41 C
1005 11-12-2005 00:00:00 -2.30069 C 83.9444 % -4.64 C
1006 12-12-2005 00:00:00 1.72847 C 87.2986 % -0.15 C
1007 13-12-2005 00:00:00 1.28472 C 92.7847 % 0.25 C
1008 14-12-2005 00:00:00 3.84028 C 91.8333 % 2.64 C
1009 15-12-2005 00:00:00 5.59167 C 78.3056 % 2.12 C
1010 16-12-2005 00:00:00 6.09861 C 72.6806 % 1.57 C
1011 17-12-2005 00:00:00 1.45035 C 70.9371 % -3.23 C
1012 18-12-2005 00:00:00 1.59861 C 73.3194 % -2.65 C
1013 19-12-2005 00:00:00 1.45417 C 78.4097 % -1.88 C
1014 20-12-2005 00:00:00 2.75347 C 79.2917 % -0.47 C
1015 21-12-2005 00:00:00 2.23194 C 76.9375 % -1.38 C
1016 22-12-2005 00:00:00 2.96875 C 85.4097 % 0.77 C
1017 23-12-2005 00:00:00 4.89653 C 82.7917 % 2.22 C
1018 24-12-2005 00:00:00 5.93264 C 77.0069 % 2.22 C
1019 25-12-2005 00:00:00 4.13958 C 81.0000 % 1.18 C
1020 26-12-2005 00:00:00 1.48403 C 78.4444 % -1.85 C
1021 27-12-2005 00:00:00 -1.47413 C 77.3566 % -4.91 C
1022 28-12-2005 00:00:00 -1.48681 C 77.2708 % -4.94 C
1023 29-12-2005 00:00:00 -2.85486 C 75.2569 % -6.61 C
1024 30-12-2005 00:00:00 -3.14514 C 71.5139 % -7.55 C
1025 31-12-2005 00:00:00 2.82361 C 83.9167 % 0.38 C

Maximal/Minimal-Werte vom 23.02.2003 - 31.12.2005

Sensor Min Max Avg
Temp
(Aussen-T/F)
-12.5 °C
28-02-2005  07:47:06
36.2 °C
08-08-2003  16:43:01
11.94 °C
Feuchte
(Aussen-T/F)
20 %
13-03-2003  15:27:13
95 %
27-03-2003  04:17:17
67.22 %
Taupunkt
(Aussen-T/F)
-16.32 C
01-03-2005  00:00:00
17.85 C
11-08-2004  00:00:00
5.69 C

Die Daten stammen von einer Davis Vantage Pro 2 Wetter-Station und werden unter Linux mit der Software wview2wettercgi und aufbereitet. Alle Angaben erfolgen ohne Gewähr für ihre Vollständigkeit oder Richtigkeit.
Kontakt: Rainer Krienke krienke@uni-koblenz.de . Meine Webseiten an der Uni Koblenz oder privat.
Version: $Revision: 0.78 $